createdAt,value
2023-05-13T00:02:21.817Z,63.50
2023-05-13T00:04:48.387Z,63.40
2023-05-13T00:07:15.014Z,63.20
2023-05-13T00:09:42.287Z,63.00
2023-05-13T00:12:09.078Z,62.80
2023-05-13T00:14:37.807Z,62.60
2023-05-13T00:17:05.842Z,62.40
2023-05-13T00:19:34.771Z,62.30
2023-05-13T00:22:01.422Z,62.20
2023-05-13T00:24:28.096Z,62.20
2023-05-13T00:26:55.884Z,62.80
2023-05-13T00:29:22.483Z,62.20
2023-05-13T00:31:49.118Z,62.40
2023-05-13T00:34:16.771Z,62.50
2023-05-13T00:36:43.440Z,62.60
2023-05-13T00:39:11.535Z,62.80
2023-05-13T00:41:38.284Z,62.70
2023-05-13T00:44:08.031Z,62.70
2023-05-13T00:46:39.422Z,62.70
2023-05-13T00:49:11.385Z,62.60
2023-05-13T00:51:39.990Z,62.50
2023-05-13T00:54:13.475Z,62.30
2023-05-13T00:56:42.394Z,62.40
2023-05-13T00:59:09.539Z,62.30
2023-05-13T01:02:06.141Z,62.40
2023-05-13T01:05:04.830Z,62.80
2023-05-13T01:08:03.177Z,62.90
2023-05-13T01:10:49.603Z,62.80
2023-05-13T01:13:24.486Z,62.50
2023-05-13T01:16:11.178Z,62.70
2023-05-13T01:18:43.300Z,62.90
2023-05-13T01:21:11.746Z,62.90
2023-05-13T01:23:38.553Z,63.00
2023-05-13T01:26:10.189Z,63.00
2023-05-13T01:28:42.550Z,63.70
2023-05-13T01:31:12.548Z,63.30
2023-05-13T01:33:42.997Z,63.20
2023-05-13T01:36:10.368Z,63.20
2023-05-13T01:38:42.069Z,63.70
2023-05-13T01:41:11.165Z,64.30
2023-05-13T01:43:42.083Z,64.60
2023-05-13T01:46:13.719Z,64.80
2023-05-13T01:48:40.889Z,64.90
2023-05-13T01:51:11.226Z,64.40
2023-05-13T01:53:38.677Z,64.20
2023-05-13T01:56:09.612Z,64.60
2023-05-13T01:58:39.600Z,63.80
2023-05-13T02:01:10.111Z,63.70
2023-05-13T02:03:37.587Z,63.60
2023-05-13T02:06:06.597Z,63.70
2023-05-13T02:08:34.175Z,63.80
2023-05-13T02:11:03.561Z,64.00
2023-05-13T02:13:30.662Z,64.10
2023-05-13T02:16:01.893Z,64.20
2023-05-13T02:18:31.187Z,64.20
2023-05-13T02:21:00.106Z,64.30
2023-05-13T02:23:29.640Z,64.40
2023-05-13T02:26:00.828Z,64.50
2023-05-13T02:28:27.565Z,64.60
2023-05-13T02:30:54.189Z,64.60
2023-05-13T02:33:21.024Z,64.70
2023-05-13T02:35:47.707Z,64.80
2023-05-13T02:38:16.790Z,65.30
2023-05-13T02:40:44.062Z,65.90
2023-05-13T02:43:11.686Z,66.20
2023-05-13T02:45:52.501Z,65.90
2023-05-13T02:48:21.318Z,65.50
2023-05-13T02:50:49.957Z,65.20
2023-05-13T02:53:19.213Z,64.90
2023-05-13T02:55:52.232Z,64.90
2023-05-13T02:58:18.829Z,64.80
2023-05-13T03:00:51.547Z,64.90
2023-05-13T03:03:18.356Z,64.90
2023-05-13T03:05:45.005Z,64.80
2023-05-13T03:08:14.559Z,64.70
2023-05-13T03:10:44.145Z,64.50
2023-05-13T03:13:12.272Z,64.60
2023-05-13T03:15:44.221Z,64.20
2023-05-13T03:18:13.712Z,64.20
2023-05-13T03:20:42.567Z,64.10
2023-05-13T03:23:14.568Z,64.10
2023-05-13T03:25:43.703Z,64.40
2023-05-13T03:28:12.560Z,64.40
2023-05-13T03:30:46.937Z,64.30
2023-05-13T03:33:23.214Z,64.30
2023-05-13T03:35:50.121Z,64.40
2023-05-13T03:38:22.590Z,64.20
2023-05-13T03:40:52.814Z,64.00
2023-05-13T03:43:27.584Z,64.10
2023-05-13T03:45:58.984Z,64.10
2023-05-13T03:48:27.764Z,64.00
2023-05-13T03:50:59.271Z,64.00
2023-05-13T03:53:28.162Z,64.00
2023-05-13T03:55:55.264Z,64.10
2023-05-13T03:58:24.277Z,64.30
2023-05-13T04:00:50.972Z,64.40
2023-05-13T04:03:20.789Z,64.60
2023-05-13T04:05:48.565Z,64.90
2023-05-13T04:08:26.936Z,64.90
2023-05-13T04:10:57.330Z,64.90
2023-05-13T04:13:26.167Z,65.20
2023-05-13T04:15:54.421Z,65.10
2023-05-13T04:18:21.585Z,65.20
2023-05-13T04:20:50.573Z,65.30
2023-05-13T04:23:21.989Z,65.30
2023-05-13T04:25:52.687Z,65.40
2023-05-13T04:28:21.924Z,65.50
2023-05-13T04:30:52.290Z,65.40
2023-05-13T04:33:24.314Z,65.40
2023-05-13T04:35:51.021Z,65.60
2023-05-13T04:38:17.653Z,65.60
2023-05-13T04:40:48.686Z,65.70
2023-05-13T04:43:23.129Z,65.80
2023-05-13T04:45:56.346Z,65.80
2023-05-13T04:48:23.000Z,65.90
2023-05-13T04:50:52.310Z,66.00
2023-05-13T04:53:21.838Z,66.30
2023-05-13T04:55:51.392Z,66.30
2023-05-13T04:58:19.259Z,66.30
2023-05-13T05:00:50.557Z,66.40
2023-05-13T05:03:19.795Z,66.50
2023-05-13T05:05:48.717Z,66.80
2023-05-13T05:08:16.463Z,66.90
2023-05-13T05:10:46.938Z,67.30
2023-05-13T05:13:15.882Z,67.30
2023-05-13T05:15:43.820Z,67.30
2023-05-13T05:18:11.094Z,67.20
2023-05-13T05:20:39.616Z,67.30
2023-05-13T05:23:10.862Z,67.40
2023-05-13T05:25:38.794Z,67.50
2023-05-13T05:28:07.027Z,67.80
2023-05-13T05:30:41.442Z,67.80
2023-05-13T05:33:19.726Z,68.40
2023-05-13T05:35:55.119Z,67.80
2023-05-13T05:38:25.271Z,67.80
2023-05-13T05:40:57.542Z,67.60
2023-05-13T05:43:31.779Z,67.60
2023-05-13T05:45:58.361Z,67.60
2023-05-13T05:48:26.311Z,67.70
2023-05-13T05:50:55.302Z,67.80
2023-05-13T05:53:26.959Z,67.70
2023-05-13T05:55:54.049Z,67.80
2023-05-13T05:58:21.193Z,67.80
2023-05-13T06:00:51.779Z,68.10
2023-05-13T06:03:21.605Z,67.90
2023-05-13T06:05:52.421Z,67.90
2023-05-13T06:08:19.080Z,68.00
2023-05-13T06:10:48.757Z,67.80
2023-05-13T06:13:15.828Z,67.80
2023-05-13T06:15:42.508Z,67.50
2023-05-13T06:18:11.347Z,67.40
2023-05-13T06:20:38.270Z,67.60
2023-05-13T06:23:04.882Z,67.40
2023-05-13T06:25:31.511Z,67.50
2023-05-13T06:27:58.065Z,67.60
2023-05-13T06:30:26.899Z,67.60
2023-05-13T06:33:01.551Z,67.70
2023-05-13T06:35:29.887Z,67.60
2023-05-13T06:37:56.661Z,67.40
2023-05-13T06:40:24.872Z,67.60
2023-05-13T06:42:54.077Z,67.70
2023-05-13T06:45:28.156Z,67.70
2023-05-13T06:47:57.610Z,67.50
2023-05-13T06:50:24.527Z,67.60
2023-05-13T06:52:53.388Z,68.00
2023-05-13T06:55:20.281Z,67.40
2023-05-13T06:57:47.058Z,66.80
2023-05-13T07:00:17.600Z,66.80
2023-05-13T07:02:44.259Z,66.40
2023-05-13T07:05:11.884Z,66.00
2023-05-13T07:07:38.828Z,66.20
2023-05-13T07:10:05.754Z,66.10
2023-05-13T07:12:33.296Z,66.10
2023-05-13T07:15:00.032Z,65.40
2023-05-13T07:17:31.105Z,64.80
2023-05-13T07:19:57.825Z,64.80
2023-05-13T07:22:24.498Z,64.50
2023-05-13T07:24:51.526Z,64.20
2023-05-13T07:27:18.120Z,63.90
2023-05-13T07:29:44.790Z,64.20
2023-05-13T07:32:11.357Z,64.20
2023-05-13T07:34:38.369Z,63.90
2023-05-13T07:37:05.369Z,63.30
2023-05-13T07:39:31.952Z,63.30
2023-05-13T07:41:58.627Z,63.20
2023-05-13T07:44:25.772Z,63.10
2023-05-13T07:46:53.346Z,63.20
2023-05-13T07:49:20.919Z,62.70
2023-05-13T07:51:47.524Z,62.40
2023-05-13T07:54:14.106Z,62.30
2023-05-13T07:56:40.740Z,62.20
2023-05-13T07:59:07.328Z,62.00
2023-05-13T08:01:33.901Z,61.80
2023-05-13T08:04:00.671Z,62.10
2023-05-13T08:06:27.435Z,62.20
2023-05-13T08:08:56.481Z,62.60
2023-05-13T08:11:23.156Z,62.00
2023-05-13T08:13:51.867Z,62.00
2023-05-13T08:16:18.517Z,61.50
2023-05-13T08:18:47.752Z,61.60
2023-05-13T08:21:14.372Z,60.90
2023-05-13T08:23:45.926Z,61.20
2023-05-13T08:26:15.589Z,61.20
2023-05-13T08:28:42.771Z,60.80
2023-05-13T08:31:12.261Z,60.50
2023-05-13T08:33:41.468Z,60.40
2023-05-13T08:36:11.217Z,60.40
2023-05-13T08:38:37.863Z,61.00
2023-05-13T08:41:06.114Z,60.60
2023-05-13T08:43:35.689Z,60.80
2023-05-13T08:46:07.998Z,60.40
2023-05-13T08:48:38.956Z,60.40
2023-05-13T08:51:06.407Z,60.40
2023-05-13T08:53:35.218Z,59.80
2023-05-13T08:56:02.365Z,59.70
2023-05-13T08:58:29.042Z,59.60
2023-05-13T09:00:56.397Z,58.60
2023-05-13T09:03:23.143Z,60.10
2023-05-13T09:05:49.719Z,59.20
2023-05-13T09:08:16.356Z,58.60
2023-05-13T09:10:43.426Z,58.40
2023-05-13T09:13:12.279Z,59.10
2023-05-13T09:15:41.769Z,59.70
2023-05-13T09:18:08.811Z,58.30
2023-05-13T09:20:35.732Z,58.00
2023-05-13T09:23:04.264Z,57.80
2023-05-13T09:25:31.272Z,57.90
2023-05-13T09:28:02.845Z,58.40
2023-05-13T09:30:33.807Z,58.30
2023-05-13T09:33:16.420Z,57.90
2023-05-13T09:35:52.700Z,56.30
2023-05-13T09:38:27.538Z,54.80
2023-05-13T09:40:56.136Z,55.50
2023-05-13T09:43:25.268Z,55.30
2023-05-13T09:45:56.541Z,54.90
2023-05-13T09:48:25.852Z,55.20
2023-05-13T09:50:54.879Z,54.90
2023-05-13T09:53:21.724Z,55.10
2023-05-13T09:55:49.986Z,54.90
2023-05-13T09:58:16.674Z,54.10
2023-05-13T10:00:44.330Z,53.30
2023-05-13T10:03:11.869Z,53.10
2023-05-13T10:05:42.693Z,53.60
2023-05-13T10:08:10.717Z,53.40
2023-05-13T10:10:37.680Z,53.80
2023-05-13T10:13:10.734Z,54.10
2023-05-13T10:15:48.999Z,55.00
2023-05-13T10:18:17.388Z,53.10
2023-05-13T10:20:44.575Z,53.60
2023-05-13T10:23:12.289Z,53.30
2023-05-13T10:25:39.140Z,54.10
2023-05-13T10:28:05.882Z,53.60
2023-05-13T10:30:35.648Z,53.30
2023-05-13T10:33:04.969Z,53.10
2023-05-13T10:35:43.261Z,52.30
2023-05-13T10:38:43.384Z,50.90
2023-05-13T10:42:02.547Z,52.90
2023-05-13T10:44:29.348Z,52.60
2023-05-13T10:46:59.011Z,52.50
2023-05-13T10:49:33.572Z,52.70
2023-05-13T10:52:07.805Z,52.10
2023-05-13T10:54:40.366Z,51.60
2023-05-13T10:57:07.345Z,51.50
2023-05-13T10:59:35.732Z,51.60
2023-05-13T11:02:19.778Z,50.70
2023-05-13T11:05:00.325Z,50.30
2023-05-13T11:07:29.914Z,49.80
2023-05-13T11:09:56.617Z,49.30
2023-05-13T11:12:23.173Z,48.80
2023-05-13T11:14:49.825Z,49.00
2023-05-13T11:17:19.845Z,49.40
2023-05-13T11:19:48.071Z,49.40
2023-05-13T11:22:16.570Z,49.70
2023-05-13T11:25:02.465Z,50.20
2023-05-13T11:27:38.230Z,50.20
2023-05-13T11:30:21.713Z,49.50
2023-05-13T11:32:55.720Z,49.00
2023-05-13T11:35:27.038Z,49.30
2023-05-13T11:37:56.435Z,49.00
2023-05-13T11:40:33.128Z,48.70
2023-05-13T11:43:01.184Z,49.00
2023-05-13T11:45:29.863Z,49.80
2023-05-13T11:47:57.541Z,49.20
2023-05-13T11:50:32.228Z,48.60
2023-05-13T11:53:00.690Z,47.90
2023-05-13T11:55:37.926Z,47.80
2023-05-13T11:58:04.527Z,47.50
2023-05-13T12:00:33.591Z,47.50
2023-05-13T12:03:02.911Z,45.70
2023-05-13T12:05:30.048Z,46.10
2023-05-13T12:07:57.976Z,44.90
2023-05-13T12:10:25.796Z,45.00
2023-05-13T12:12:52.795Z,43.80
2023-05-13T12:15:21.489Z,44.00
2023-05-13T12:17:49.145Z,43.60
2023-05-13T12:20:23.216Z,43.30
2023-05-13T12:22:49.909Z,42.90
2023-05-13T12:25:35.583Z,42.70
2023-05-13T12:28:24.171Z,43.40
2023-05-13T12:31:05.729Z,41.60
2023-05-13T12:33:41.752Z,41.50
2023-05-13T12:36:25.952Z,41.20
2023-05-13T12:39:01.096Z,41.50
2023-05-13T12:41:30.811Z,42.30
2023-05-13T12:44:01.699Z,41.10
2023-05-13T12:46:28.773Z,40.60
2023-05-13T12:48:57.918Z,40.70
2023-05-13T12:51:24.955Z,39.90
2023-05-13T12:53:54.029Z,40.00
2023-05-13T12:56:22.748Z,40.50
2023-05-13T12:58:50.642Z,40.90
2023-05-13T13:01:17.988Z,40.60
2023-05-13T13:03:45.684Z,39.70
2023-05-13T13:06:13.324Z,39.20
2023-05-13T13:08:40.264Z,38.40
2023-05-13T13:11:06.946Z,38.30
2023-05-13T13:13:33.743Z,38.40
2023-05-13T13:16:00.792Z,37.70
2023-05-13T13:18:27.589Z,37.60
2023-05-13T13:20:55.082Z,38.10
2023-05-13T13:23:21.709Z,37.80
2023-05-13T13:25:48.713Z,37.30
2023-05-13T13:28:15.764Z,37.00
2023-05-13T13:30:46.354Z,37.10
2023-05-13T13:33:16.417Z,36.90
2023-05-13T13:35:44.144Z,37.10
2023-05-13T13:38:10.944Z,37.80
2023-05-13T13:40:37.569Z,37.60
2023-05-13T13:43:07.548Z,37.10
2023-05-13T13:45:34.713Z,36.80
2023-05-13T13:48:04.792Z,36.90
2023-05-13T13:50:31.491Z,37.40
2023-05-13T13:52:58.072Z,38.50
2023-05-13T13:55:24.932Z,38.70
2023-05-13T13:57:52.016Z,38.10
2023-05-13T14:00:19.046Z,38.50
2023-05-13T14:02:46.061Z,38.80
2023-05-13T14:05:15.937Z,37.20
2023-05-13T14:07:42.533Z,37.30
2023-05-13T14:10:09.697Z,37.50
2023-05-13T14:12:36.547Z,37.60
2023-05-13T14:15:03.456Z,38.70
2023-05-13T14:17:33.052Z,38.30
2023-05-13T14:19:59.712Z,38.30
2023-05-13T14:22:26.681Z,38.60
2023-05-13T14:24:53.394Z,38.70
2023-05-13T14:27:21.279Z,39.30
2023-05-13T14:29:48.093Z,39.00
2023-05-13T14:32:15.347Z,40.00
2023-05-13T14:34:42.619Z,40.50
2023-05-13T14:37:09.319Z,39.70
2023-05-13T14:39:35.978Z,38.70
2023-05-13T14:42:03.578Z,37.40
2023-05-13T14:44:30.345Z,36.80
2023-05-13T14:46:57.009Z,36.30
2023-05-13T14:49:23.762Z,34.90
2023-05-13T14:51:50.512Z,34.80
2023-05-13T14:54:17.563Z,34.50
2023-05-13T14:56:44.434Z,34.70
2023-05-13T14:59:11.257Z,35.00
2023-05-13T15:01:38.342Z,36.50
2023-05-13T15:04:05.328Z,36.90
2023-05-13T15:06:31.993Z,37.40
2023-05-13T15:08:58.663Z,36.00
2023-05-13T15:11:28.154Z,36.00
2023-05-13T15:13:55.233Z,36.40
2023-05-13T15:16:22.337Z,36.10
2023-05-13T15:18:50.062Z,36.50
2023-05-13T15:21:17.182Z,35.60
2023-05-13T15:23:43.799Z,35.20
2023-05-13T15:26:10.405Z,34.10
2023-05-13T15:28:37.104Z,33.10
2023-05-13T15:31:04.849Z,31.90
2023-05-13T15:33:32.429Z,31.00
2023-05-13T15:36:01.003Z,30.40
2023-05-13T15:38:27.892Z,30.20
2023-05-13T15:40:54.590Z,31.40
2023-05-13T15:43:21.255Z,31.20
2023-05-13T15:45:47.938Z,30.60
2023-05-13T15:48:15.218Z,30.70
2023-05-13T15:50:41.834Z,32.40
2023-05-13T15:53:08.477Z,31.90
2023-05-13T15:55:36.784Z,32.40
2023-05-13T15:58:03.433Z,32.70
2023-05-13T16:00:30.519Z,33.60
2023-05-13T16:02:57.267Z,34.10
2023-05-13T16:05:23.969Z,35.80
2023-05-13T16:07:50.660Z,37.40
2023-05-13T16:10:17.507Z,39.10
2023-05-13T16:12:44.226Z,41.10
2023-05-13T16:15:11.536Z,42.40
2023-05-13T16:17:38.224Z,43.00
2023-05-13T16:20:05.431Z,44.30
2023-05-13T16:22:34.378Z,44.50
2023-05-13T16:25:04.476Z,44.60
2023-05-13T16:27:31.971Z,44.20
2023-05-13T16:30:01.173Z,44.60
2023-05-13T16:32:28.394Z,44.60
2023-05-13T16:34:55.426Z,45.60
2023-05-13T16:37:22.051Z,45.30
2023-05-13T16:39:48.610Z,45.30
2023-05-13T16:42:15.477Z,45.90
2023-05-13T16:44:42.056Z,46.70
2023-05-13T16:47:09.033Z,46.90
2023-05-13T16:49:38.316Z,48.40
2023-05-13T16:52:05.970Z,49.30
2023-05-13T16:54:32.920Z,49.80
2023-05-13T16:56:59.810Z,49.90
2023-05-13T16:59:27.306Z,48.80
2023-05-13T17:01:54.326Z,49.10
2023-05-13T17:04:21.316Z,49.10
2023-05-13T17:06:47.995Z,49.70
2023-05-13T17:09:14.671Z,50.10
2023-05-13T17:11:41.562Z,50.00
2023-05-13T17:14:08.273Z,50.40
2023-05-13T17:16:34.959Z,51.00
2023-05-13T17:19:01.706Z,50.80
2023-05-13T17:21:30.050Z,51.80
2023-05-13T17:23:59.422Z,51.70
2023-05-13T17:26:28.431Z,51.90
2023-05-13T17:28:55.128Z,52.30
2023-05-13T17:31:27.865Z,52.50
2023-05-13T17:33:54.626Z,52.80
2023-05-13T17:36:23.909Z,53.40
2023-05-13T17:38:55.278Z,53.30
2023-05-13T17:41:22.438Z,54.50
2023-05-13T17:43:49.078Z,54.60
2023-05-13T17:46:18.733Z,55.20
2023-05-13T17:48:45.466Z,55.30
2023-05-13T17:51:12.114Z,55.80
2023-05-13T17:53:38.691Z,55.60
2023-05-13T17:56:08.057Z,55.70
2023-05-13T17:58:34.589Z,56.10
2023-05-13T18:01:01.300Z,55.90
2023-05-13T18:03:28.059Z,56.20
2023-05-13T18:05:54.840Z,56.70
2023-05-13T18:08:24.123Z,56.10
2023-05-13T18:10:50.781Z,57.10
2023-05-13T18:13:17.435Z,57.00
2023-05-13T18:15:44.176Z,57.20
2023-05-13T18:18:10.935Z,57.50
2023-05-13T18:20:40.024Z,57.50
2023-05-13T18:23:06.574Z,57.80
2023-05-13T18:25:34.774Z,57.70
2023-05-13T18:28:09.679Z,58.10
2023-05-13T18:30:36.294Z,58.30
2023-05-13T18:33:05.241Z,58.70
2023-05-13T18:35:31.952Z,58.70
2023-05-13T18:38:07.620Z,58.10
2023-05-13T18:40:34.319Z,58.40
2023-05-13T18:43:03.531Z,58.60
2023-05-13T18:45:33.904Z,58.70
2023-05-13T18:48:00.735Z,58.50
2023-05-13T18:50:27.417Z,58.60
2023-05-13T18:52:55.309Z,58.70
2023-05-13T18:55:24.428Z,59.10
2023-05-13T18:57:51.423Z,59.20
2023-05-13T19:00:18.975Z,59.00
2023-05-13T19:02:45.859Z,59.40
2023-05-13T19:05:19.775Z,60.10
2023-05-13T19:07:47.114Z,59.20
2023-05-13T19:10:16.063Z,58.80
2023-05-13T19:12:52.020Z,58.90
2023-05-13T19:15:24.997Z,59.00
2023-05-13T19:17:52.665Z,58.90
2023-05-13T19:20:21.873Z,58.60
2023-05-13T19:22:54.489Z,58.90
2023-05-13T19:25:23.458Z,59.40
2023-05-13T19:27:50.280Z,59.30
2023-05-13T19:30:16.854Z,59.40
2023-05-13T19:32:43.665Z,59.60
2023-05-13T19:35:11.266Z,59.90
2023-05-13T19:37:40.208Z,59.80
2023-05-13T19:40:08.297Z,60.40
2023-05-13T19:42:37.498Z,60.90
2023-05-13T19:45:07.520Z,61.60
2023-05-13T19:47:34.692Z,62.60
2023-05-13T19:50:04.086Z,62.30
2023-05-13T19:52:30.699Z,62.40
2023-05-13T19:54:58.263Z,62.40
2023-05-13T19:57:29.880Z,62.40
2023-05-13T19:59:58.139Z,62.70
2023-05-13T20:02:28.052Z,62.70
2023-05-13T20:05:00.190Z,62.80
2023-05-13T20:07:30.610Z,62.80
2023-05-13T20:10:03.711Z,63.50
2023-05-13T20:12:35.163Z,63.00
2023-05-13T20:15:03.277Z,62.90
2023-05-13T20:17:30.185Z,62.80
2023-05-13T20:20:04.948Z,62.70
2023-05-13T20:22:36.207Z,62.50
2023-05-13T20:25:05.929Z,62.50
2023-05-13T20:27:32.494Z,62.00
2023-05-13T20:30:00.916Z,61.80
2023-05-13T20:32:27.704Z,61.70
2023-05-13T20:34:54.497Z,61.60
2023-05-13T20:37:23.762Z,61.40
2023-05-13T20:39:51.401Z,61.40
2023-05-13T20:42:22.272Z,61.20
2023-05-13T20:44:49.634Z,61.80
2023-05-13T20:47:19.602Z,61.80
2023-05-13T20:49:48.902Z,62.30
2023-05-13T20:52:15.969Z,62.10
2023-05-13T20:54:44.801Z,61.90
2023-05-13T20:57:17.782Z,61.80
2023-05-13T20:59:44.389Z,62.00
2023-05-13T21:02:17.391Z,61.90
2023-05-13T21:04:43.981Z,61.60
2023-05-13T21:07:15.639Z,61.70
2023-05-13T21:09:43.521Z,61.70
2023-05-13T21:12:10.099Z,61.60
2023-05-13T21:14:38.848Z,61.50
2023-05-13T21:17:05.517Z,61.40
2023-05-13T21:19:32.437Z,61.30
2023-05-13T21:22:01.369Z,61.40
2023-05-13T21:24:30.400Z,61.30
2023-05-13T21:26:59.358Z,61.50
2023-05-13T21:29:25.920Z,61.40
2023-05-13T21:31:55.793Z,61.70
2023-05-13T21:34:22.398Z,61.80
2023-05-13T21:36:49.035Z,61.80
2023-05-13T21:39:18.846Z,61.90
2023-05-13T21:41:47.883Z,61.90
2023-05-13T21:44:17.565Z,62.70
2023-05-13T21:46:58.190Z,62.20
2023-05-13T21:49:30.790Z,62.50
2023-05-13T21:51:57.370Z,62.70
2023-05-13T21:54:24.927Z,62.90
2023-05-13T21:56:51.526Z,63.10
2023-05-13T21:59:18.090Z,63.20
2023-05-13T22:01:44.626Z,63.40
2023-05-13T22:04:11.189Z,63.40
2023-05-13T22:06:40.361Z,63.50
2023-05-13T22:09:07.034Z,63.60
2023-05-13T22:11:33.637Z,63.40
2023-05-13T22:14:02.683Z,63.30
2023-05-13T22:16:31.646Z,63.20
2023-05-13T22:18:58.631Z,63.00
2023-05-13T22:21:25.589Z,63.60
2023-05-13T22:23:54.718Z,62.90
2023-05-13T22:26:25.615Z,62.80
2023-05-13T22:28:52.259Z,62.90
2023-05-13T22:31:21.851Z,62.60
2023-05-13T22:33:48.434Z,62.60
2023-05-13T22:36:18.554Z,62.60
2023-05-13T22:38:45.682Z,62.60
2023-05-13T22:41:12.693Z,62.60
2023-05-13T22:43:39.906Z,62.60
2023-05-13T22:46:08.709Z,62.50
2023-05-13T22:48:40.577Z,62.50
2023-05-13T22:51:07.197Z,62.50
2023-05-13T22:53:34.471Z,62.50
2023-05-13T22:56:01.128Z,62.60
2023-05-13T22:58:27.683Z,62.50
2023-05-13T23:00:54.249Z,62.50
2023-05-13T23:03:25.659Z,62.50
2023-05-13T23:05:54.695Z,62.50
2023-05-13T23:08:21.312Z,62.50
2023-05-13T23:10:47.842Z,62.50
2023-05-13T23:13:14.514Z,62.60
2023-05-13T23:15:41.157Z,62.60
2023-05-13T23:18:07.821Z,62.50
2023-05-13T23:20:37.490Z,62.60
2023-05-13T23:23:06.744Z,62.60
2023-05-13T23:25:33.308Z,62.50
2023-05-13T23:28:07.465Z,62.60
2023-05-13T23:30:36.512Z,63.00
2023-05-13T23:33:03.222Z,62.70
2023-05-13T23:35:32.164Z,62.80
2023-05-13T23:37:59.971Z,62.90
2023-05-13T23:40:29.187Z,62.90
2023-05-13T23:42:55.831Z,63.00
2023-05-13T23:45:24.849Z,63.20
2023-05-13T23:47:55.301Z,63.30
2023-05-13T23:50:22.042Z,63.40
2023-05-13T23:52:51.054Z,63.50
2023-05-13T23:55:21.638Z,63.80
2023-05-13T23:57:48.631Z,63.90
